Terminal Aerodrome Forecast
Issued by NWS

Home | Current Version | Previous Version | Text Only | Print | Product List | Glossary On
Versions: 1 2 3 4 5 6 7 8 9 10 11 12 13 14 15 16 17 18 19 20 21 22 23
778
FTUS43 KMPX 241743
TAFRWF
TAF
KRWF 241743Z 2418/2518 12007KT 2SM -SN OVC012
     FM241900 10008KT 1/2SM SN FG OVC008
     FM250100 29007KT 1 1/2SM -SN OVC007
     FM250300 29010KT P6SM BKN010
     FM250600 28013KT P6SM BKN040
     FM251000 27013KT P6SM SCT250=

USA.gov is the U.S. government's official web portal to all federal, state and local government web resources and services.